sensor_id;sensor_type;location;lat;lon;timestamp;pressure;altitude;pressure_sealevel;temperature;humidity
22755;BME280;11544;42.020;23.094;2023-07-24T00:01:22;97328.91;;;24.64;46.45
22755;BME280;11544;42.020;23.094;2023-07-24T00:03:49;97333.94;;;24.48;46.48
22755;BME280;11544;42.020;23.094;2023-07-24T00:06:17;97330.56;;;24.56;45.35
22755;BME280;11544;42.020;23.094;2023-07-24T00:08:44;97329.69;;;24.45;45.93
22755;BME280;11544;42.020;23.094;2023-07-24T00:11:11;97328.47;;;24.98;46.04
22755;BME280;11544;42.020;23.094;2023-07-24T00:13:38;97328.06;;;24.83;45.27
22755;BME280;11544;42.020;23.094;2023-07-24T00:16:08;97332.75;;;24.31;46.51
22755;BME280;11544;42.020;23.094;2023-07-24T00:18:35;97325.94;;;24.67;45.29
22755;BME280;11544;42.020;23.094;2023-07-24T00:21:02;97331.47;;;24.25;46.79
22755;BME280;11544;42.020;23.094;2023-07-24T00:23:30;97325.88;;;23.88;46.12
22755;BME280;11544;42.020;23.094;2023-07-24T00:25:57;97330.28;;;24.49;46.61
22755;BME280;11544;42.020;23.094;2023-07-24T00:28:24;97322.72;;;24.93;44.76
22755;BME280;11544;42.020;23.094;2023-07-24T00:30:51;97328.13;;;23.83;46.80
22755;BME280;11544;42.020;23.094;2023-07-24T00:33:18;97331.28;;;24.67;44.83
22755;BME280;11544;42.020;23.094;2023-07-24T00:35:45;97330.03;;;24.62;45.66
22755;BME280;11544;42.020;23.094;2023-07-24T00:38:12;97330.16;;;24.70;45.63
22755;BME280;11544;42.020;23.094;2023-07-24T00:40:39;97328.09;;;24.23;45.15
22755;BME280;11544;42.020;23.094;2023-07-24T00:43:06;97320.56;;;24.28;44.85
22755;BME280;11544;42.020;23.094;2023-07-24T00:45:33;97323.50;;;23.54;47.14
22755;BME280;11544;42.020;23.094;2023-07-24T00:48:01;97318.09;;;23.65;47.02
22755;BME280;11544;42.020;23.094;2023-07-24T00:50:28;97313.41;;;23.79;47.63
22755;BME280;11544;42.020;23.094;2023-07-24T00:52:56;97316.84;;;23.70;47.24
22755;BME280;11544;42.020;23.094;2023-07-24T00:55:24;97323.75;;;23.51;48.95
22755;BME280;11544;42.020;23.094;2023-07-24T00:57:51;97316.69;;;23.71;48.46
22755;BME280;11544;42.020;23.094;2023-07-24T01:00:18;97321.81;;;24.24;47.26
22755;BME280;11544;42.020;23.094;2023-07-24T01:02:46;97317.69;;;24.01;47.42
22755;BME280;11544;42.020;23.094;2023-07-24T01:05:13;97309.00;;;23.68;48.09
22755;BME280;11544;42.020;23.094;2023-07-24T01:07:43;97306.84;;;23.62;48.55
22755;BME280;11544;42.020;23.094;2023-07-24T01:10:10;97306.19;;;23.70;47.47
22755;BME280;11544;42.020;23.094;2023-07-24T01:15:36;97307.38;;;23.25;48.64
22755;BME280;11544;42.020;23.094;2023-07-24T01:18:10;97315.13;;;23.90;48.13
22755;BME280;11544;42.020;23.094;2023-07-24T01:20:41;97313.88;;;23.11;48.92
22755;BME280;11544;42.020;23.094;2023-07-24T01:25:59;97315.34;;;23.25;49.25
22755;BME280;11544;42.020;23.094;2023-07-24T01:28:27;97316.03;;;23.17;49.62
22755;BME280;11544;42.020;23.094;2023-07-24T01:30:55;97308.25;;;23.87;49.02
22755;BME280;11544;42.020;23.094;2023-07-24T01:33:41;97315.75;;;22.99;49.79
22755;BME280;11544;42.020;23.094;2023-07-24T01:36:08;97314.97;;;23.09;51.57
22755;BME280;11544;42.020;23.094;2023-07-24T01:38:37;97318.97;;;23.03;51.97
22755;BME280;11544;42.020;23.094;2023-07-24T01:41:05;97307.03;;;23.70;50.07
22755;BME280;11544;42.020;23.094;2023-07-24T01:43:32;97311.03;;;23.85;49.28
22755;BME280;11544;42.020;23.094;2023-07-24T01:45:59;97318.56;;;23.50;50.75
22755;BME280;11544;42.020;23.094;2023-07-24T01:48:26;97326.28;;;22.90;53.24
22755;BME280;11544;42.020;23.094;2023-07-24T01:50:53;97328.13;;;23.31;53.33
22755;BME280;11544;42.020;23.094;2023-07-24T01:53:20;97329.22;;;23.08;53.91
22755;BME280;11544;42.020;23.094;2023-07-24T01:55:47;97321.16;;;23.61;53.28
22755;BME280;11544;42.020;23.094;2023-07-24T01:58:14;97324.38;;;23.13;53.10
22755;BME280;11544;42.020;23.094;2023-07-24T02:00:42;97324.84;;;23.18;53.02
22755;BME280;11544;42.020;23.094;2023-07-24T02:03:08;97329.44;;;23.16;52.83
22755;BME280;11544;42.020;23.094;2023-07-24T02:05:36;97331.59;;;22.90;52.98
22755;BME280;11544;42.020;23.094;2023-07-24T02:08:03;97327.28;;;23.10;53.19
22755;BME280;11544;42.020;23.094;2023-07-24T02:10:30;97319.66;;;22.84;52.83
22755;BME280;11544;42.020;23.094;2023-07-24T02:12:58;97321.06;;;22.99;52.09
22755;BME280;11544;42.020;23.094;2023-07-24T02:15:25;97315.84;;;22.45;52.87
22755;BME280;11544;42.020;23.094;2023-07-24T02:17:51;97320.09;;;22.36;54.93
22755;BME280;11544;42.020;23.094;2023-07-24T02:20:19;97313.84;;;22.90;54.99
22755;BME280;11544;42.020;23.094;2023-07-24T02:22:46;97321.00;;;22.78;54.47
22755;BME280;11544;42.020;23.094;2023-07-24T02:25:13;97320.59;;;22.62;53.86
22755;BME280;11544;42.020;23.094;2023-07-24T02:27:40;97324.00;;;21.87;55.59
22755;BME280;11544;42.020;23.094;2023-07-24T02:30:07;97331.06;;;22.75;54.98
22755;BME280;11544;42.020;23.094;2023-07-24T02:32:34;97333.97;;;22.17;56.20
22755;BME280;11544;42.020;23.094;2023-07-24T02:35:02;97325.81;;;22.85;51.95
22755;BME280;11544;42.020;23.094;2023-07-24T02:37:29;97331.84;;;22.66;53.05
22755;BME280;11544;42.020;23.094;2023-07-24T02:39:56;97318.78;;;21.96;57.32
22755;BME280;11544;42.020;23.094;2023-07-24T02:42:23;97321.13;;;21.90;56.72
22755;BME280;11544;42.020;23.094;2023-07-24T02:44:50;97315.75;;;22.67;53.91
22755;BME280;11544;42.020;23.094;2023-07-24T02:47:17;97308.41;;;22.16;54.82
22755;BME280;11544;42.020;23.094;2023-07-24T02:49:44;97317.06;;;22.40;54.29
22755;BME280;11544;42.020;23.094;2023-07-24T02:52:10;97319.88;;;21.94;55.00
22755;BME280;11544;42.020;23.094;2023-07-24T02:54:38;97324.09;;;22.19;55.42
22755;BME280;11544;42.020;23.094;2023-07-24T02:57:05;97329.78;;;22.03;55.08
22755;BME280;11544;42.020;23.094;2023-07-24T02:59:32;97328.09;;;22.02;55.78
22755;BME280;11544;42.020;23.094;2023-07-24T03:01:59;97328.66;;;22.17;56.40
22755;BME280;11544;42.020;23.094;2023-07-24T03:04:26;97332.25;;;21.14;57.45
22755;BME280;11544;42.020;23.094;2023-07-24T03:06:53;97333.16;;;21.49;56.33
22755;BME280;11544;42.020;23.094;2023-07-24T03:09:20;97327.50;;;21.98;56.55
22755;BME280;11544;42.020;23.094;2023-07-24T03:11:47;97322.69;;;21.92;58.09
22755;BME280;11544;42.020;23.094;2023-07-24T03:14:14;97338.59;;;21.47;57.78
22755;BME280;11544;42.020;23.094;2023-07-24T03:16:41;97341.13;;;22.05;55.80
22755;BME280;11544;42.020;23.094;2023-07-24T03:19:08;97350.47;;;21.30;57.36
22755;BME280;11544;42.020;23.094;2023-07-24T03:21:35;97351.38;;;21.07;60.09
22755;BME280;11544;42.020;23.094;2023-07-24T03:24:02;97346.03;;;21.31;58.14
22755;BME280;11544;42.020;23.094;2023-07-24T03:26:29;97345.72;;;21.58;58.10
22755;BME280;11544;42.020;23.094;2023-07-24T03:28:56;97338.69;;;22.13;57.02
22755;BME280;11544;42.020;23.094;2023-07-24T03:31:23;97346.69;;;21.80;57.40
22755;BME280;11544;42.020;23.094;2023-07-24T03:33:50;97348.06;;;21.39;58.93
22755;BME280;11544;42.020;23.094;2023-07-24T03:36:17;97336.44;;;21.75;58.46
22755;BME280;11544;42.020;23.094;2023-07-24T03:38:44;97348.38;;;21.58;60.58
22755;BME280;11544;42.020;23.094;2023-07-24T03:41:11;97348.84;;;21.63;59.16
22755;BME280;11544;42.020;23.094;2023-07-24T03:43:41;97342.81;;;21.72;59.50
22755;BME280;11544;42.020;23.094;2023-07-24T03:46:11;97350.91;;;21.60;58.78
22755;BME280;11544;42.020;23.094;2023-07-24T03:48:38;97350.72;;;21.39;58.42
22755;BME280;11544;42.020;23.094;2023-07-24T03:51:05;97351.00;;;21.58;59.73
22755;BME280;11544;42.020;23.094;2023-07-24T03:53:32;97352.81;;;21.46;59.14
22755;BME280;11544;42.020;23.094;2023-07-24T03:56:02;97362.53;;;21.34;58.98
22755;BME280;11544;42.020;23.094;2023-07-24T03:58:30;97354.59;;;20.99;60.51
22755;BME280;11544;42.020;23.094;2023-07-24T04:00:57;97356.69;;;21.98;58.59
22755;BME280;11544;42.020;23.094;2023-07-24T04:03:24;97352.00;;;21.80;56.56
22755;BME280;11544;42.020;23.094;2023-07-24T04:05:51;97346.06;;;22.32;56.65
22755;BME280;11544;42.020;23.094;2023-07-24T04:08:21;97354.97;;;22.31;55.86
22755;BME280;11544;42.020;23.094;2023-07-24T04:10:52;97353.66;;;21.92;57.28
22755;BME280;11544;42.020;23.094;2023-07-24T04:13:20;97348.91;;;22.52;57.00
22755;BME280;11544;42.020;23.094;2023-07-24T04:16:21;97369.75;;;21.32;59.34
22755;BME280;11544;42.020;23.094;2023-07-24T04:18:48;97370.53;;;21.68;58.71
22755;BME280;11544;42.020;23.094;2023-07-24T04:21:15;97358.75;;;21.72;59.04
22755;BME280;11544;42.020;23.094;2023-07-24T04:23:44;97367.91;;;21.91;61.28
22755;BME280;11544;42.020;23.094;2023-07-24T04:26:11;97370.44;;;21.92;62.67
22755;BME280;11544;42.020;23.094;2023-07-24T04:28:38;97372.59;;;21.87;64.21
22755;BME280;11544;42.020;23.094;2023-07-24T04:31:05;97367.88;;;21.68;67.21
22755;BME280;11544;42.020;23.094;2023-07-24T04:33:32;97365.88;;;21.83;65.74
22755;BME280;11544;42.020;23.094;2023-07-24T04:35:59;97367.03;;;22.47;63.78
22755;BME280;11544;42.020;23.094;2023-07-24T04:38:26;97366.44;;;22.75;61.82
22755;BME280;11544;42.020;23.094;2023-07-24T04:40:56;97370.59;;;22.68;61.64
22755;BME280;11544;42.020;23.094;2023-07-24T04:43:23;97369.19;;;23.17;60.04
22755;BME280;11544;42.020;23.094;2023-07-24T04:45:59;97355.75;;;23.19;58.40
22755;BME280;11544;42.020;23.094;2023-07-24T04:48:26;97347.69;;;24.03;56.50
22755;BME280;11544;42.020;23.094;2023-07-24T04:50:55;97353.25;;;24.00;56.35
22755;BME280;11544;42.020;23.094;2023-07-24T04:53:36;97362.44;;;23.13;59.11
22755;BME280;11544;42.020;23.094;2023-07-24T04:56:04;97362.34;;;23.45;58.01
22755;BME280;11544;42.020;23.094;2023-07-24T04:58:32;97357.38;;;23.31;58.20
22755;BME280;11544;42.020;23.094;2023-07-24T05:01:04;97347.03;;;25.66;50.96
22755;BME280;11544;42.020;23.094;2023-07-24T05:04:08;97349.41;;;25.69;50.29
22755;BME280;11544;42.020;23.094;2023-07-24T05:06:35;97348.31;;;26.55;47.35
22755;BME280;11544;42.020;23.094;2023-07-24T05:09:19;97358.63;;;25.08;51.09
22755;BME280;11544;42.020;23.094;2023-07-24T05:11:58;97353.03;;;25.11;52.63
22755;BME280;11544;42.020;23.094;2023-07-24T05:14:25;97346.44;;;25.82;48.21
22755;BME280;11544;42.020;23.094;2023-07-24T05:22:09;97346.44;;;25.82;47.65
22755;BME280;11544;42.020;23.094;2023-07-24T05:24:37;97348.22;;;26.47;46.57
22755;BME280;11544;42.020;23.094;2023-07-24T05:27:05;97341.81;;;26.39;46.22
22755;BME280;11544;42.020;23.094;2023-07-24T05:29:32;97340.47;;;26.71;45.80
22755;BME280;11544;42.020;23.094;2023-07-24T05:31:59;97336.72;;;27.36;44.46
22755;BME280;11544;42.020;23.094;2023-07-24T05:34:26;97346.50;;;27.09;44.80
22755;BME280;11544;42.020;23.094;2023-07-24T05:36:53;97335.56;;;26.21;46.13
22755;BME280;11544;42.020;23.094;2023-07-24T05:39:20;97337.50;;;26.29;47.53
22755;BME280;11544;42.020;23.094;2023-07-24T05:41:47;97336.66;;;26.74;46.95
22755;BME280;11544;42.020;23.094;2023-07-24T05:44:15;97342.31;;;26.89;46.64
22755;BME280;11544;42.020;23.094;2023-07-24T05:46:42;97333.28;;;28.12;43.44
22755;BME280;11544;42.020;23.094;2023-07-24T05:49:09;97330.88;;;27.93;42.49
22755;BME280;11544;42.020;23.094;2023-07-24T05:51:36;97324.31;;;28.38;40.85
22755;BME280;11544;42.020;23.094;2023-07-24T05:54:03;97329.41;;;26.66;45.04
22755;BME280;11544;42.020;23.094;2023-07-24T05:56:30;97326.22;;;27.77;43.52
22755;BME280;11544;42.020;23.094;2023-07-24T05:58:57;97331.25;;;28.06;42.07
22755;BME280;11544;42.020;23.094;2023-07-24T06:01:24;97328.66;;;27.62;43.77
22755;BME280;11544;42.020;23.094;2023-07-24T06:03:52;97331.25;;;27.80;42.73
22755;BME280;11544;42.020;23.094;2023-07-24T06:06:19;97325.09;;;28.14;42.23
22755;BME280;11544;42.020;23.094;2023-07-24T06:08:46;97317.72;;;28.99;39.78
22755;BME280;11544;42.020;23.094;2023-07-24T06:11:14;97323.06;;;26.67;43.98
22755;BME280;11544;42.020;23.094;2023-07-24T06:13:40;97317.72;;;26.67;45.52
22755;BME280;11544;42.020;23.094;2023-07-24T06:16:07;97304.59;;;27.96;43.55
22755;BME280;11544;42.020;23.094;2023-07-24T06:18:35;97305.91;;;28.43;42.96
22755;BME280;11544;42.020;23.094;2023-07-24T06:21:02;97310.28;;;28.01;42.33
22755;BME280;11544;42.020;23.094;2023-07-24T06:23:29;97307.81;;;28.59;41.42
22755;BME280;11544;42.020;23.094;2023-07-24T06:25:56;97303.88;;;28.37;42.78
22755;BME280;11544;42.020;23.094;2023-07-24T06:28:23;97295.03;;;28.44;40.92
22755;BME280;11544;42.020;23.094;2023-07-24T06:30:52;97308.88;;;28.32;41.64
22755;BME280;11544;42.020;23.094;2023-07-24T06:33:20;97303.16;;;29.34;40.36
22755;BME280;11544;42.020;23.094;2023-07-24T06:35:49;97301.13;;;29.28;41.42
22755;BME280;11544;42.020;23.094;2023-07-24T06:38:17;97303.78;;;28.55;41.13
22755;BME280;11544;42.020;23.094;2023-07-24T06:40:43;97294.47;;;29.88;38.39
22755;BME280;11544;42.020;23.094;2023-07-24T06:43:10;97306.31;;;28.64;40.46
22755;BME280;11544;42.020;23.094;2023-07-24T06:45:38;97309.81;;;29.47;38.60
22755;BME280;11544;42.020;23.094;2023-07-24T06:48:05;97308.16;;;29.05;39.29
22755;BME280;11544;42.020;23.094;2023-07-24T06:50:32;97303.16;;;27.50;41.69
22755;BME280;11544;42.020;23.094;2023-07-24T06:52:59;97298.44;;;29.04;39.06
22755;BME280;11544;42.020;23.094;2023-07-24T06:55:26;97297.09;;;28.67;40.25
22755;BME280;11544;42.020;23.094;2023-07-24T06:57:53;97294.53;;;29.72;38.39
22755;BME280;11544;42.020;23.094;2023-07-24T07:00:20;97307.00;;;29.07;39.32
22755;BME280;11544;42.020;23.094;2023-07-24T07:02:47;97295.03;;;29.59;38.44
22755;BME280;11544;42.020;23.094;2023-07-24T07:05:14;97298.25;;;29.38;38.15
22755;BME280;11544;42.020;23.094;2023-07-24T07:07:41;97291.22;;;28.55;39.44
22755;BME280;11544;42.020;23.094;2023-07-24T07:10:08;97283.50;;;28.93;39.70
22755;BME280;11544;42.020;23.094;2023-07-24T07:12:35;97289.47;;;28.38;40.96
22755;BME280;11544;42.020;23.094;2023-07-24T07:15:03;97278.59;;;29.54;39.07
22755;BME280;11544;42.020;23.094;2023-07-24T07:17:29;97271.28;;;30.18;37.09
22755;BME280;11544;42.020;23.094;2023-07-24T07:19:57;97275.78;;;30.80;37.59
22755;BME280;11544;42.020;23.094;2023-07-24T07:22:24;97277.25;;;29.50;39.16
22755;BME280;11544;42.020;23.094;2023-07-24T07:24:51;97278.41;;;29.72;39.36
22755;BME280;11544;42.020;23.094;2023-07-24T07:27:18;97261.66;;;29.93;38.06
22755;BME280;11544;42.020;23.094;2023-07-24T07:29:45;97260.97;;;30.07;37.51
22755;BME280;11544;42.020;23.094;2023-07-24T07:32:12;97258.75;;;30.11;36.16
22755;BME280;11544;42.020;23.094;2023-07-24T07:34:39;97249.41;;;30.30;35.76
22755;BME280;11544;42.020;23.094;2023-07-24T07:37:06;97256.88;;;31.27;36.97
22755;BME280;11544;42.020;23.094;2023-07-24T07:39:33;97252.72;;;30.86;36.98
22755;BME280;11544;42.020;23.094;2023-07-24T07:42:00;97252.19;;;30.91;35.42
22755;BME280;11544;42.020;23.094;2023-07-24T07:44:43;97244.56;;;31.92;33.46
22755;BME280;11544;42.020;23.094;2023-07-24T07:47:10;97251.13;;;32.19;34.71
22755;BME280;11544;42.020;23.094;2023-07-24T07:49:37;97251.00;;;31.61;35.01
22755;BME280;11544;42.020;23.094;2023-07-24T07:52:06;97246.13;;;32.37;33.51
22755;BME280;11544;42.020;23.094;2023-07-24T07:54:32;97239.53;;;31.29;33.75
22755;BME280;11544;42.020;23.094;2023-07-24T07:57:00;97242.06;;;31.60;35.19
22755;BME280;11544;42.020;23.094;2023-07-24T07:59:27;97242.94;;;31.61;34.78
22755;BME280;11544;42.020;23.094;2023-07-24T08:01:54;97243.22;;;32.17;33.64
22755;BME280;11544;42.020;23.094;2023-07-24T08:04:21;97242.31;;;32.10;33.56
22755;BME280;11544;42.020;23.094;2023-07-24T08:06:48;97239.03;;;32.73;32.64
22755;BME280;11544;42.020;23.094;2023-07-24T08:09:15;97228.41;;;31.62;33.92
22755;BME280;11544;42.020;23.094;2023-07-24T08:11:44;97231.34;;;32.33;33.38
22755;BME280;11544;42.020;23.094;2023-07-24T08:14:11;97223.94;;;32.57;32.41
22755;BME280;11544;42.020;23.094;2023-07-24T08:16:38;97221.06;;;32.43;32.59
22755;BME280;11544;42.020;23.094;2023-07-24T08:19:06;97215.28;;;33.11;30.99
22755;BME280;11544;42.020;23.094;2023-07-24T08:21:33;97219.91;;;32.31;33.42
22755;BME280;11544;42.020;23.094;2023-07-24T08:24:01;97211.41;;;32.27;33.25
22755;BME280;11544;42.020;23.094;2023-07-24T08:26:29;97212.22;;;31.92;33.49
22755;BME280;11544;42.020;23.094;2023-07-24T08:28:56;97216.28;;;32.39;32.18
22755;BME280;11544;42.020;23.094;2023-07-24T08:31:23;97208.63;;;31.84;32.39
22755;BME280;11544;42.020;23.094;2023-07-24T08:33:50;97203.31;;;32.49;33.42
22755;BME280;11544;42.020;23.094;2023-07-24T08:36:17;97200.63;;;31.32;32.88
22755;BME280;11544;42.020;23.094;2023-07-24T08:38:45;97198.41;;;32.38;31.83
22755;BME280;11544;42.020;23.094;2023-07-24T08:41:13;97192.69;;;33.53;30.67
22755;BME280;11544;42.020;23.094;2023-07-24T08:43:42;97186.81;;;33.08;31.90
22755;BME280;11544;42.020;23.094;2023-07-24T08:46:15;97182.88;;;32.18;31.69
22755;BME280;11544;42.020;23.094;2023-07-24T08:49:06;97169.97;;;33.89;30.25
22755;BME280;11544;42.020;23.094;2023-07-24T08:51:35;97172.72;;;33.48;31.50
22755;BME280;11544;42.020;23.094;2023-07-24T08:54:09;97174.16;;;33.85;31.29
22755;BME280;11544;42.020;23.094;2023-07-24T08:56:37;97166.03;;;33.85;31.51
22755;BME280;11544;42.020;23.094;2023-07-24T08:59:08;97162.94;;;34.02;30.29
22755;BME280;11544;42.020;23.094;2023-07-24T09:01:35;97170.41;;;33.86;30.06
22755;BME280;11544;42.020;23.094;2023-07-24T09:04:02;97165.22;;;33.91;30.49
22755;BME280;11544;42.020;23.094;2023-07-24T09:06:29;97157.69;;;34.62;29.34
22755;BME280;11544;42.020;23.094;2023-07-24T09:08:57;97158.91;;;34.59;29.44
22755;BME280;11544;42.020;23.094;2023-07-24T09:11:24;97164.19;;;33.99;28.98
22755;BME280;11544;42.020;23.094;2023-07-24T09:13:52;97155.75;;;34.22;29.62
22755;BME280;11544;42.020;23.094;2023-07-24T09:16:22;97153.69;;;34.57;27.91
22755;BME280;11544;42.020;23.094;2023-07-24T09:18:51;97161.19;;;34.42;27.49
22755;BME280;11544;42.020;23.094;2023-07-24T09:21:32;97149.16;;;34.85;26.58
22755;BME280;11544;42.020;23.094;2023-07-24T09:24:15;97148.59;;;34.01;26.25
22755;BME280;11544;42.020;23.094;2023-07-24T09:26:53;97140.81;;;34.66;26.57
22755;BME280;11544;42.020;23.094;2023-07-24T09:29:30;97133.69;;;35.18;26.60
22755;BME280;11544;42.020;23.094;2023-07-24T09:31:59;97124.94;;;34.30;27.46
22755;BME280;11544;42.020;23.094;2023-07-24T09:34:26;97122.66;;;34.93;26.39
22755;BME280;11544;42.020;23.094;2023-07-24T09:36:53;97120.38;;;34.50;27.15
22755;BME280;11544;42.020;23.094;2023-07-24T09:39:27;97118.94;;;34.74;26.84
22755;BME280;11544;42.020;23.094;2023-07-24T09:42:05;97097.91;;;35.55;26.73
22755;BME280;11544;42.020;23.094;2023-07-24T09:44:32;97112.16;;;35.89;27.10
22755;BME280;11544;42.020;23.094;2023-07-24T09:47:00;97103.09;;;35.56;26.59
22755;BME280;11544;42.020;23.094;2023-07-24T09:49:48;97103.59;;;36.23;25.63
22755;BME280;11544;42.020;23.094;2023-07-24T09:52:18;97096.00;;;34.97;26.44
22755;BME280;11544;42.020;23.094;2023-07-24T09:54:59;97086.66;;;35.96;27.40
22755;BME280;11544;42.020;23.094;2023-07-24T09:57:28;97091.34;;;35.76;25.65
22755;BME280;11544;42.020;23.094;2023-07-24T09:59:56;97085.75;;;35.12;26.05
22755;BME280;11544;42.020;23.094;2023-07-24T10:02:24;97087.69;;;35.95;27.24
22755;BME280;11544;42.020;23.094;2023-07-24T10:04:51;97083.09;;;36.59;26.19
22755;BME280;11544;42.020;23.094;2023-07-24T10:07:20;97085.66;;;36.22;25.40
22755;BME280;11544;42.020;23.094;2023-07-24T10:09:52;97074.72;;;35.07;26.54
22755;BME280;11544;42.020;23.094;2023-07-24T10:12:26;97077.06;;;34.90;27.25
22755;BME280;11544;42.020;23.094;2023-07-24T10:15:01;97071.81;;;35.09;26.79
22755;BME280;11544;42.020;23.094;2023-07-24T10:17:39;97069.97;;;35.54;27.05
22755;BME280;11544;42.020;23.094;2023-07-24T10:20:16;97057.28;;;35.93;26.13
22755;BME280;11544;42.020;23.094;2023-07-24T10:22:54;97051.97;;;35.22;27.06
22755;BME280;11544;42.020;23.094;2023-07-24T10:25:31;97047.94;;;36.14;26.27
22755;BME280;11544;42.020;23.094;2023-07-24T10:30:34;97036.81;;;36.22;26.60
22755;BME280;11544;42.020;23.094;2023-07-24T10:33:09;97036.38;;;36.25;26.87
22755;BME280;11544;42.020;23.094;2023-07-24T10:35:45;97033.31;;;35.45;27.29
22755;BME280;11544;42.020;23.094;2023-07-24T10:38:20;97033.25;;;36.72;26.38
22755;BME280;11544;42.020;23.094;2023-07-24T10:41:02;97035.91;;;36.97;25.90
22755;BME280;11544;42.020;23.094;2023-07-24T10:43:46;97027.00;;;36.72;26.02
22755;BME280;11544;42.020;23.094;2023-07-24T10:46:16;97026.81;;;35.91;26.15
22755;BME280;11544;42.020;23.094;2023-07-24T10:48:50;97023.75;;;36.63;26.59
22755;BME280;11544;42.020;23.094;2023-07-24T10:51:27;97023.31;;;35.84;26.19
22755;BME280;11544;42.020;23.094;2023-07-24T10:53:54;97018.94;;;36.15;26.21
22755;BME280;11544;42.020;23.094;2023-07-24T10:56:21;97010.63;;;36.35;27.13
22755;BME280;11544;42.020;23.094;2023-07-24T10:58:48;97005.41;;;36.77;26.96
22755;BME280;11544;42.020;23.094;2023-07-24T11:01:17;96997.06;;;36.35;26.81
22755;BME280;11544;42.020;23.094;2023-07-24T11:03:44;96992.38;;;36.42;26.72
22755;BME280;11544;42.020;23.094;2023-07-24T11:06:14;96986.56;;;36.82;26.77
22755;BME280;11544;42.020;23.094;2023-07-24T11:08:42;96977.63;;;36.56;25.80
22755;BME280;11544;42.020;23.094;2023-07-24T11:11:17;96971.34;;;36.37;26.39
22755;BME280;11544;42.020;23.094;2023-07-24T11:13:44;96964.31;;;36.73;26.32
22755;BME280;11544;42.020;23.094;2023-07-24T11:16:11;96974.63;;;36.83;26.32
22755;BME280;11544;42.020;23.094;2023-07-24T11:18:48;96964.81;;;37.00;26.64
22755;BME280;11544;42.020;23.094;2023-07-24T11:21:20;96971.00;;;36.89;26.18
22755;BME280;11544;42.020;23.094;2023-07-24T11:23:49;96963.28;;;36.31;26.67
22755;BME280;11544;42.020;23.094;2023-07-24T11:26:19;96966.59;;;36.33;27.07
22755;BME280;11544;42.020;23.094;2023-07-24T11:28:47;96965.97;;;36.31;26.53
22755;BME280;11544;42.020;23.094;2023-07-24T11:31:14;96950.97;;;36.72;25.87
22755;BME280;11544;42.020;23.094;2023-07-24T11:33:56;96957.44;;;36.89;25.46
22755;BME280;11544;42.020;23.094;2023-07-24T11:36:28;96963.00;;;36.94;25.52
22755;BME280;11544;42.020;23.094;2023-07-24T11:38:55;96954.09;;;37.54;25.06
22755;BME280;11544;42.020;23.094;2023-07-24T11:41:23;96955.13;;;37.23;25.01
22755;BME280;11544;42.020;23.094;2023-07-24T11:43:50;96956.41;;;37.50;24.49
22755;BME280;11544;42.020;23.094;2023-07-24T11:46:28;96945.97;;;37.36;24.31
22755;BME280;11544;42.020;23.094;2023-07-24T11:49:23;96943.72;;;37.33;24.52
22755;BME280;11544;42.020;23.094;2023-07-24T11:51:59;96930.22;;;36.59;24.11
22755;BME280;11544;42.020;23.094;2023-07-24T11:54:27;96946.78;;;37.06;25.30
22755;BME280;11544;42.020;23.094;2023-07-24T11:56:57;96939.56;;;37.30;24.42
22755;BME280;11544;42.020;23.094;2023-07-24T11:59:24;96939.38;;;37.13;23.91
22755;BME280;11544;42.020;23.094;2023-07-24T12:01:51;96937.72;;;36.57;23.23
22755;BME280;11544;42.020;23.094;2023-07-24T12:04:21;96935.16;;;36.99;24.21
22755;BME280;11544;42.020;23.094;2023-07-24T12:07:07;96934.78;;;37.14;24.59
22755;BME280;11544;42.020;23.094;2023-07-24T12:09:34;96936.22;;;37.16;24.37
22755;BME280;11544;42.020;23.094;2023-07-24T12:12:08;96940.00;;;37.15;25.13
22755;BME280;11544;42.020;23.094;2023-07-24T12:14:47;96932.00;;;37.02;24.60
22755;BME280;11544;42.020;23.094;2023-07-24T12:17:34;96927.91;;;37.41;24.67
22755;BME280;11544;42.020;23.094;2023-07-24T12:20:02;96914.03;;;37.01;24.00
22755;BME280;11544;42.020;23.094;2023-07-24T12:22:29;96915.41;;;37.52;24.29
22755;BME280;11544;42.020;23.094;2023-07-24T12:24:56;96915.09;;;37.30;24.25
22755;BME280;11544;42.020;23.094;2023-07-24T12:27:24;96918.16;;;37.22;24.32
22755;BME280;11544;42.020;23.094;2023-07-24T12:29:51;96916.06;;;37.24;24.69
22755;BME280;11544;42.020;23.094;2023-07-24T12:32:22;96926.00;;;37.42;24.37
22755;BME280;11544;42.020;23.094;2023-07-24T12:34:51;96914.09;;;37.43;24.38
22755;BME280;11544;42.020;23.094;2023-07-24T12:37:18;96906.00;;;37.24;23.86
22755;BME280;11544;42.020;23.094;2023-07-24T12:39:48;96910.63;;;37.24;24.43
22755;BME280;11544;42.020;23.094;2023-07-24T12:42:29;96902.19;;;37.14;25.63
22755;BME280;11544;42.020;23.094;2023-07-24T12:44:56;96897.75;;;37.61;24.87
22755;BME280;11544;42.020;23.094;2023-07-24T12:47:24;96897.59;;;37.68;24.20
22755;BME280;11544;42.020;23.094;2023-07-24T12:49:51;96898.81;;;37.72;25.01
22755;BME280;11544;42.020;23.094;2023-07-24T12:52:22;96895.03;;;37.73;25.21
22755;BME280;11544;42.020;23.094;2023-07-24T12:54:48;96886.28;;;37.59;24.73
22755;BME280;11544;42.020;23.094;2023-07-24T12:57:27;96882.84;;;37.64;25.16
22755;BME280;11544;42.020;23.094;2023-07-24T12:59:54;96894.03;;;37.14;24.90
22755;BME280;11544;42.020;23.094;2023-07-24T13:02:22;96884.50;;;37.23;24.59
22755;BME280;11544;42.020;23.094;2023-07-24T13:04:48;96875.41;;;36.99;24.73
22755;BME280;11544;42.020;23.094;2023-07-24T13:07:15;96872.72;;;36.80;24.79
22755;BME280;11544;42.020;23.094;2023-07-24T13:09:42;96875.38;;;37.17;25.20
22755;BME280;11544;42.020;23.094;2023-07-24T13:12:10;96866.03;;;37.13;25.37
22755;BME280;11544;42.020;23.094;2023-07-24T13:14:37;96868.47;;;37.03;25.29